createdAt,value
2023-04-23T00:02:16.694Z,35.05
2023-04-23T00:04:49.347Z,31.17
2023-04-23T00:07:15.998Z,33.83
2023-04-23T00:09:43.368Z,34.75
2023-04-23T00:12:09.948Z,29.60
2023-04-23T00:14:36.504Z,29.73
2023-04-23T00:17:02.886Z,28.35
2023-04-23T00:19:29.712Z,30.52
2023-04-23T00:21:56.189Z,29.25
2023-04-23T00:24:22.570Z,27.57
2023-04-23T00:26:48.922Z,31.65
2023-04-23T00:29:15.364Z,27.05
2023-04-23T00:31:41.701Z,30.02
2023-04-23T00:34:08.089Z,30.92
2023-04-23T00:36:34.500Z,38.23
2023-04-23T00:39:00.867Z,26.00
2023-04-23T00:41:27.468Z,31.45
2023-04-23T00:43:54.270Z,30.92
2023-04-23T00:46:21.014Z,30.27
2023-04-23T00:48:47.952Z,24.07
2023-04-23T00:51:16.002Z,29.58
2023-04-23T00:53:42.391Z,35.83
2023-04-23T00:56:09.353Z,28.38
2023-04-23T00:58:36.302Z,35.08
2023-04-23T01:01:02.714Z,33.43
2023-04-23T01:03:29.440Z,27.90
2023-04-23T01:05:56.333Z,27.88
2023-04-23T01:08:23.385Z,23.80
2023-04-23T01:10:49.743Z,22.98
2023-04-23T01:13:16.508Z,27.40
2023-04-23T01:15:44.141Z,26.27
2023-04-23T01:18:10.735Z,24.88
2023-04-23T01:20:37.525Z,32.30
2023-04-23T01:23:04.091Z,32.30
2023-04-23T01:25:30.473Z,34.83
2023-04-23T01:27:57.577Z,37.28
2023-04-23T01:30:25.434Z,32.55
2023-04-23T01:32:51.940Z,34.35
2023-04-23T01:35:18.465Z,31.52
2023-04-23T01:37:44.980Z,28.80
2023-04-23T01:40:11.545Z,30.95
2023-04-23T01:42:38.607Z,24.98
2023-04-23T01:45:05.181Z,32.50
2023-04-23T01:47:31.676Z,32.35
2023-04-23T01:49:58.134Z,30.80
2023-04-23T01:52:24.485Z,31.75
2023-04-23T01:54:51.262Z,28.85
2023-04-23T01:57:17.785Z,32.88
2023-04-23T01:59:44.252Z,29.08
2023-04-23T02:02:10.639Z,35.33
2023-04-23T02:04:39.254Z,30.92
2023-04-23T02:07:05.807Z,25.20
2023-04-23T02:09:32.170Z,25.13
2023-04-23T02:11:58.606Z,25.50
2023-04-23T02:14:24.976Z,21.47
2023-04-23T02:16:51.341Z,24.08
2023-04-23T02:19:17.913Z,26.25
2023-04-23T02:21:44.274Z,21.40
2023-04-23T02:24:10.768Z,26.98
2023-04-23T02:26:37.236Z,26.40
2023-04-23T02:29:03.625Z,24.83
2023-04-23T02:31:30.041Z,20.83
2023-04-23T02:33:56.468Z,22.38
2023-04-23T02:36:22.855Z,27.98
2023-04-23T02:38:49.214Z,27.53
2023-04-23T02:41:15.616Z,28.55
2023-04-23T02:43:42.001Z,26.08
2023-04-23T02:46:08.661Z,24.48
2023-04-23T02:48:39.595Z,25.30
2023-04-23T02:51:06.335Z,23.80
2023-04-23T02:53:32.920Z,28.27
2023-04-23T02:55:59.423Z,24.50
2023-04-23T02:58:25.961Z,23.05
2023-04-23T03:00:52.444Z,24.13
2023-04-23T03:03:18.936Z,26.57
2023-04-23T03:05:45.465Z,22.23
2023-04-23T03:08:11.865Z,20.65
2023-04-23T03:10:38.260Z,23.83
2023-04-23T03:13:04.672Z,25.23
2023-04-23T03:15:31.066Z,23.40
2023-04-23T03:17:57.512Z,30.90
2023-04-23T03:20:23.870Z,26.08
2023-04-23T03:22:50.225Z,30.10
2023-04-23T03:25:16.628Z,29.17
2023-04-23T03:27:42.984Z,29.50
2023-04-23T03:30:09.563Z,29.33
2023-04-23T03:32:36.450Z,29.98
2023-04-23T03:35:02.882Z,37.58
2023-04-23T03:37:29.356Z,32.55
2023-04-23T03:39:55.790Z,35.83
2023-04-23T03:42:22.126Z,27.40
2023-04-23T03:44:48.480Z,29.40
2023-04-23T03:47:14.862Z,29.98
2023-04-23T03:49:41.199Z,28.55
2023-04-23T03:52:07.550Z,28.30
2023-04-23T03:54:33.921Z,31.63
2023-04-23T03:57:00.260Z,29.23
2023-04-23T03:59:26.749Z,30.00
2023-04-23T04:01:53.334Z,28.20
2023-04-23T04:04:20.134Z,30.00
2023-04-23T04:06:46.916Z,27.17
2023-04-23T04:09:13.473Z,27.95
2023-04-23T04:11:39.943Z,28.42
2023-04-23T04:14:06.490Z,33.85
2023-04-23T04:16:33.170Z,28.97
2023-04-23T04:18:59.805Z,26.70
2023-04-23T04:21:26.297Z,29.30
2023-04-23T04:23:53.053Z,30.90
2023-04-23T04:26:19.526Z,29.35
2023-04-23T04:28:45.992Z,27.03
2023-04-23T04:31:14.093Z,28.88
2023-04-23T04:33:40.623Z,32.67
2023-04-23T04:36:07.490Z,27.45
2023-04-23T04:38:34.025Z,28.45
2023-04-23T04:41:00.997Z,27.80
2023-04-23T04:43:27.477Z,28.40
2023-04-23T04:45:54.045Z,30.30
2023-04-23T04:48:20.610Z,30.35
2023-04-23T04:50:47.204Z,28.80
2023-04-23T04:53:13.721Z,29.37
2023-04-23T04:55:40.565Z,25.25
2023-04-23T04:58:07.190Z,30.13
2023-04-23T05:00:33.795Z,31.63
2023-04-23T05:03:00.589Z,25.10
2023-04-23T05:05:27.658Z,28.53
2023-04-23T05:07:54.797Z,30.08
2023-04-23T05:10:21.830Z,28.02
2023-04-23T05:12:48.254Z,31.50
2023-04-23T05:15:14.868Z,28.13
2023-04-23T05:17:41.582Z,33.00
2023-04-23T05:20:08.809Z,31.38
2023-04-23T05:22:35.339Z,34.97
2023-04-23T05:25:01.802Z,31.25
2023-04-23T05:27:28.301Z,38.03
2023-04-23T05:29:54.848Z,28.43
2023-04-23T05:32:21.503Z,32.95
2023-04-23T05:34:48.009Z,30.23
2023-04-23T05:37:14.565Z,27.08
2023-04-23T05:39:42.258Z,25.27
2023-04-23T05:42:09.729Z,25.23
2023-04-23T05:44:36.244Z,23.85
2023-04-23T05:47:02.737Z,24.35
2023-04-23T05:49:29.186Z,22.77
2023-04-23T05:51:55.993Z,23.85
2023-04-23T05:54:22.650Z,16.30
2023-04-23T05:56:49.054Z,16.73
2023-04-23T05:59:15.554Z,25.40
2023-04-23T06:01:42.227Z,20.83
2023-04-23T06:04:08.994Z,16.98
2023-04-23T06:06:35.617Z,15.80
2023-04-23T06:09:02.121Z,20.42
2023-04-23T06:11:28.508Z,16.58
2023-04-23T06:13:54.885Z,16.15
2023-04-23T06:16:21.329Z,16.48
2023-04-23T06:18:47.810Z,16.10
2023-04-23T06:21:14.362Z,17.85
2023-04-23T06:23:40.816Z,15.07
2023-04-23T06:26:07.192Z,12.15
2023-04-23T06:28:33.786Z,11.00
2023-04-23T06:31:00.294Z,10.17
2023-04-23T06:33:26.811Z,11.13
2023-04-23T06:35:53.391Z,12.55
2023-04-23T06:38:19.867Z,12.07
2023-04-23T06:40:46.208Z,11.23
2023-04-23T06:43:12.763Z,9.10
2023-04-23T06:45:39.134Z,10.70
2023-04-23T06:48:05.703Z,13.48
2023-04-23T06:50:32.360Z,10.93
2023-04-23T06:52:58.740Z,13.65
2023-04-23T06:55:25.370Z,12.77
2023-04-23T06:57:55.964Z,10.90
2023-04-23T07:00:23.645Z,10.93
2023-04-23T07:02:50.309Z,10.68
2023-04-23T07:05:17.927Z,11.27
2023-04-23T07:07:44.586Z,10.33
2023-04-23T07:10:12.112Z,10.02
2023-04-23T07:12:39.589Z,10.73
2023-04-23T07:15:07.025Z,9.65
2023-04-23T07:17:33.886Z,9.82
2023-04-23T07:20:00.425Z,9.20
2023-04-23T07:22:27.781Z,9.75
2023-04-23T07:24:56.106Z,10.35
2023-04-23T07:27:22.769Z,9.70
2023-04-23T07:29:49.244Z,6.72
2023-04-23T07:32:15.766Z,10.03
2023-04-23T07:34:42.933Z,11.27
2023-04-23T07:37:09.744Z,8.57
2023-04-23T07:39:36.301Z,8.23
2023-04-23T07:42:02.873Z,9.25
2023-04-23T07:44:29.413Z,9.10
2023-04-23T07:46:55.901Z,8.45
2023-04-23T07:49:22.393Z,8.85
2023-04-23T07:51:48.905Z,9.30
2023-04-23T07:54:15.530Z,9.13
2023-04-23T07:56:43.210Z,9.03
2023-04-23T07:59:10.108Z,12.43
2023-04-23T08:01:36.696Z,8.40
2023-04-23T08:04:03.401Z,7.65
2023-04-23T08:06:30.161Z,9.38
2023-04-23T08:08:57.368Z,7.60
2023-04-23T08:11:23.997Z,8.32
2023-04-23T08:13:50.498Z,8.02
2023-04-23T08:16:17.011Z,8.40
2023-04-23T08:18:50.932Z,7.72
2023-04-23T08:21:24.608Z,7.83
2023-04-23T08:23:51.206Z,7.00
2023-04-23T08:26:17.910Z,7.65
2023-04-23T08:28:46.756Z,9.70
2023-04-23T08:31:25.663Z,9.98
2023-04-23T08:33:53.767Z,10.00
2023-04-23T08:36:20.382Z,9.27
2023-04-23T08:38:46.838Z,9.90
2023-04-23T08:41:15.197Z,9.50
2023-04-23T08:43:45.034Z,9.57
2023-04-23T08:46:12.372Z,8.17
2023-04-23T08:48:39.925Z,8.18
2023-04-23T08:51:07.446Z,10.00
2023-04-23T08:53:34.797Z,11.07
2023-04-23T08:56:02.848Z,9.07
2023-04-23T08:58:30.177Z,12.20
2023-04-23T09:00:57.508Z,7.68
2023-04-23T09:03:25.135Z,9.43
2023-04-23T09:05:51.901Z,10.20
2023-04-23T09:08:20.683Z,11.55
2023-04-23T09:10:47.186Z,10.67
2023-04-23T09:13:14.450Z,17.52
2023-04-23T09:15:41.415Z,10.60
2023-04-23T09:18:07.982Z,9.10
2023-04-23T09:20:34.595Z,8.68
2023-04-23T09:23:01.372Z,7.70
2023-04-23T09:25:27.839Z,8.50
2023-04-23T09:27:54.338Z,7.95
2023-04-23T09:30:21.013Z,9.45
2023-04-23T09:32:47.988Z,11.40
2023-04-23T09:35:18.011Z,8.90
2023-04-23T09:37:49.429Z,9.98
2023-04-23T09:40:17.646Z,10.48
2023-04-23T09:42:51.342Z,8.73
2023-04-23T09:45:18.031Z,10.77
2023-04-23T09:47:55.598Z,9.63
2023-04-23T09:50:39.574Z,8.25
2023-04-23T09:53:08.986Z,7.75
2023-04-23T09:55:40.050Z,7.63
2023-04-23T09:58:11.437Z,12.00
2023-04-23T10:00:39.832Z,9.53
2023-04-23T10:03:07.704Z,10.35
2023-04-23T10:08:08.236Z,7.70
2023-04-23T10:10:40.608Z,9.57
2023-04-23T10:13:20.126Z,8.77
2023-04-23T10:15:47.647Z,8.93
2023-04-23T10:18:17.385Z,6.53
2023-04-23T10:20:43.812Z,14.70
2023-04-23T10:23:11.507Z,10.40
2023-04-23T10:25:39.063Z,10.90
2023-04-23T10:28:06.298Z,19.30
2023-04-23T10:30:32.906Z,10.30
2023-04-23T10:33:00.560Z,8.25
2023-04-23T10:35:27.116Z,12.55
2023-04-23T10:37:53.718Z,8.67
2023-04-23T10:40:30.747Z,13.73
2023-04-23T10:42:57.359Z,7.90
2023-04-23T10:45:25.631Z,8.82
2023-04-23T10:47:53.607Z,10.32
2023-04-23T10:50:20.184Z,8.00
2023-04-23T10:52:46.588Z,9.13
2023-04-23T10:55:17.077Z,9.45
2023-04-23T10:57:55.656Z,7.60
2023-04-23T11:00:22.175Z,10.40
2023-04-23T11:02:50.874Z,9.67
2023-04-23T11:05:17.400Z,10.60
2023-04-23T11:08:11.108Z,12.50
2023-04-23T11:10:51.584Z,10.45
2023-04-23T11:13:22.301Z,7.30
2023-04-23T11:15:48.717Z,9.33
2023-04-23T11:18:15.138Z,8.02
2023-04-23T11:20:41.565Z,11.32
2023-04-23T11:23:08.028Z,9.80
2023-04-23T11:25:35.548Z,9.77
2023-04-23T11:28:02.838Z,8.23
2023-04-23T11:30:29.872Z,10.10
2023-04-23T11:32:57.136Z,7.13
2023-04-23T11:35:24.305Z,15.00
2023-04-23T11:37:50.898Z,12.30
2023-04-23T11:40:17.742Z,9.93
2023-04-23T11:42:44.800Z,15.82
2023-04-23T11:45:17.035Z,8.30
2023-04-23T11:47:43.772Z,8.23
2023-04-23T11:50:10.465Z,9.90
2023-04-23T11:52:39.122Z,13.37
2023-04-23T11:55:06.398Z,11.45
2023-04-23T11:57:36.695Z,10.32
2023-04-23T12:00:13.187Z,10.38
2023-04-23T12:02:49.909Z,9.88
2023-04-23T12:05:16.980Z,11.03
2023-04-23T12:07:43.362Z,13.13
2023-04-23T12:10:10.009Z,10.30
2023-04-23T12:12:36.410Z,10.57
2023-04-23T12:15:03.772Z,8.30
2023-04-23T12:17:30.310Z,28.57
2023-04-23T12:19:56.683Z,20.08
2023-04-23T12:22:28.823Z,13.48
2023-04-23T12:24:55.963Z,11.95
2023-04-23T12:27:22.442Z,14.55
2023-04-23T12:29:49.292Z,17.03
2023-04-23T12:32:15.794Z,16.40
2023-04-23T12:34:51.889Z,18.55
2023-04-23T12:37:18.411Z,10.98
2023-04-23T12:39:44.892Z,8.23
2023-04-23T12:42:11.320Z,7.20
2023-04-23T12:44:38.440Z,10.10
2023-04-23T12:47:06.062Z,13.20
2023-04-23T12:49:33.203Z,18.02
2023-04-23T12:52:00.438Z,13.10
2023-04-23T12:54:27.747Z,12.60
2023-04-23T12:56:54.101Z,10.13
2023-04-23T12:59:22.161Z,8.73
2023-04-23T13:01:48.594Z,8.57
2023-04-23T13:04:15.016Z,13.38
2023-04-23T13:06:41.586Z,9.77
2023-04-23T13:09:08.049Z,12.55
2023-04-23T13:11:34.410Z,10.25
2023-04-23T13:14:01.169Z,9.38
2023-04-23T13:16:27.617Z,9.27
2023-04-23T13:18:54.626Z,8.90
2023-04-23T13:21:21.061Z,6.88
2023-04-23T13:23:47.420Z,10.15
2023-04-23T13:26:14.286Z,8.35
2023-04-23T13:28:40.708Z,8.88
2023-04-23T13:31:07.300Z,8.63
2023-04-23T13:33:33.935Z,6.38
2023-04-23T13:36:02.145Z,5.78
2023-04-23T13:38:28.752Z,7.45
2023-04-23T13:40:55.091Z,7.07
2023-04-23T13:43:21.614Z,7.70
2023-04-23T13:45:48.031Z,9.40
2023-04-23T13:48:15.121Z,8.10
2023-04-23T13:50:42.008Z,9.30
2023-04-23T13:53:09.337Z,5.75
2023-04-23T13:55:36.136Z,6.03
2023-04-23T13:58:03.497Z,6.80
2023-04-23T14:00:29.937Z,8.63
2023-04-23T14:02:56.640Z,8.88
2023-04-23T14:05:23.328Z,8.02
2023-04-23T14:07:50.237Z,7.63
2023-04-23T14:10:16.711Z,8.02
2023-04-23T14:12:44.109Z,10.60
2023-04-23T14:15:10.610Z,7.35
2023-04-23T14:17:37.275Z,6.75
2023-04-23T14:20:03.875Z,6.50
2023-04-23T14:22:30.302Z,8.00
2023-04-23T14:24:57.446Z,8.00
2023-04-23T14:27:23.863Z,8.60
2023-04-23T14:29:56.987Z,8.70
2023-04-23T14:32:23.471Z,7.87
2023-04-23T14:34:50.704Z,8.48
2023-04-23T14:37:17.204Z,7.00
2023-04-23T14:39:43.721Z,9.98
2023-04-23T14:42:10.246Z,9.52
2023-04-23T14:44:36.599Z,11.03
2023-04-23T14:47:02.963Z,6.55
2023-04-23T14:49:29.475Z,6.65
2023-04-23T14:51:55.976Z,8.13
2023-04-23T14:54:22.568Z,8.43
2023-04-23T14:56:50.156Z,7.23
2023-04-23T14:59:16.554Z,6.63
2023-04-23T15:01:43.193Z,6.40
2023-04-23T15:04:10.429Z,6.03
2023-04-23T15:06:37.136Z,9.20
2023-04-23T15:09:03.950Z,7.77
2023-04-23T15:11:30.440Z,9.00
2023-04-23T15:14:06.338Z,8.57
2023-04-23T15:16:46.545Z,6.07
2023-04-23T15:19:13.613Z,7.97
2023-04-23T15:21:40.054Z,6.07
2023-04-23T15:24:06.434Z,6.93
2023-04-23T15:26:32.959Z,7.68
2023-04-23T15:28:59.389Z,5.35
2023-04-23T15:31:26.006Z,7.20
2023-04-23T15:33:52.461Z,9.57
2023-04-23T15:36:18.815Z,6.70
2023-04-23T15:38:45.159Z,8.70
2023-04-23T15:41:11.801Z,6.70
2023-04-23T15:43:38.173Z,7.55
2023-04-23T15:46:04.585Z,9.87
2023-04-23T15:48:31.128Z,9.00
2023-04-23T15:50:57.493Z,7.15
2023-04-23T15:53:24.802Z,5.68
2023-04-23T15:55:51.886Z,8.77
2023-04-23T15:58:18.559Z,8.53
2023-04-23T16:00:45.069Z,12.13
2023-04-23T16:03:12.097Z,11.77
2023-04-23T16:05:38.585Z,12.50
2023-04-23T16:08:04.960Z,14.20
2023-04-23T16:10:31.428Z,8.70
2023-04-23T16:12:57.799Z,11.65
2023-04-23T16:15:25.039Z,10.70
2023-04-23T16:17:51.446Z,10.00
2023-04-23T16:20:18.119Z,9.98
2023-04-23T16:22:44.461Z,13.20
2023-04-23T16:25:10.961Z,18.00
2023-04-23T16:27:37.375Z,14.27
2023-04-23T16:30:03.956Z,14.95
2023-04-23T16:32:30.458Z,15.25
2023-04-23T16:34:56.824Z,12.07
2023-04-23T16:37:23.460Z,16.48
2023-04-23T16:39:49.943Z,13.63
2023-04-23T16:42:16.293Z,15.57
2023-04-23T16:44:43.038Z,18.25
2023-04-23T16:47:09.830Z,15.13
2023-04-23T16:49:36.254Z,21.45
2023-04-23T16:52:02.619Z,50.30
2023-04-23T16:54:29.775Z,64.43
2023-04-23T16:56:56.362Z,26.77
2023-04-23T16:59:22.715Z,19.17
2023-04-23T17:01:49.158Z,23.55
2023-04-23T17:04:15.709Z,26.02
2023-04-23T17:06:42.244Z,45.65
2023-04-23T17:09:08.656Z,21.77
2023-04-23T17:11:35.054Z,18.53
2023-04-23T17:14:01.431Z,25.00
2023-04-23T17:16:27.895Z,22.02
2023-04-23T17:18:54.729Z,27.30
2023-04-23T17:21:21.098Z,23.58
2023-04-23T17:23:47.527Z,27.87
2023-04-23T17:26:13.910Z,23.95
2023-04-23T17:28:40.301Z,19.90
2023-04-23T17:31:07.278Z,28.30
2023-04-23T17:33:33.761Z,24.95
2023-04-23T17:36:00.205Z,26.73
2023-04-23T17:38:26.855Z,28.00
2023-04-23T17:40:53.281Z,28.58
2023-04-23T17:43:19.802Z,38.13
2023-04-23T17:45:46.359Z,48.80
2023-04-23T17:48:13.156Z,53.37
2023-04-23T17:50:39.524Z,35.70
2023-04-23T17:53:05.985Z,30.52
2023-04-23T17:55:32.488Z,29.00
2023-04-23T17:58:01.778Z,25.95
2023-04-23T18:00:28.239Z,28.07
2023-04-23T18:02:54.752Z,29.25
2023-04-23T18:05:21.257Z,39.22
2023-04-23T18:07:47.726Z,37.20
2023-04-23T18:10:14.129Z,31.45
2023-04-23T18:12:40.551Z,29.70
2023-04-23T18:15:07.525Z,29.23
2023-04-23T18:17:33.950Z,31.55
2023-04-23T18:20:00.340Z,33.83
2023-04-23T18:22:26.728Z,29.75
2023-04-23T18:24:53.102Z,32.40
2023-04-23T18:27:19.466Z,39.85
2023-04-23T18:29:46.356Z,51.58
2023-04-23T18:32:20.964Z,58.67
2023-04-23T18:34:50.674Z,45.15
2023-04-23T18:37:31.775Z,39.90
2023-04-23T18:39:58.284Z,50.58
2023-04-23T18:42:24.627Z,60.10
2023-04-23T18:44:51.000Z,37.67
2023-04-23T18:47:18.208Z,41.15
2023-04-23T18:49:46.006Z,52.87
2023-04-23T18:52:12.590Z,40.25
2023-04-23T18:54:39.285Z,35.58
2023-04-23T18:57:05.644Z,43.83
2023-04-23T18:59:32.013Z,60.90
2023-04-23T19:01:58.876Z,29.37
2023-04-23T19:04:25.479Z,29.85
2023-04-23T19:06:51.940Z,31.50
2023-04-23T19:09:18.311Z,86.07
2023-04-23T19:11:44.660Z,68.85
2023-04-23T19:14:11.016Z,48.60
2023-04-23T19:16:37.508Z,27.73
2023-04-23T19:19:03.930Z,24.60
2023-04-23T19:21:30.291Z,22.30
2023-04-23T19:23:56.767Z,22.02
2023-04-23T19:26:23.154Z,27.53
2023-04-23T19:28:49.529Z,26.05
2023-04-23T19:31:15.950Z,19.38
2023-04-23T19:33:42.316Z,22.35
2023-04-23T19:36:08.671Z,24.85
2023-04-23T19:38:35.148Z,27.00
2023-04-23T19:41:01.542Z,26.85
2023-04-23T19:43:28.148Z,23.08
2023-04-23T19:45:54.707Z,21.40
2023-04-23T19:48:21.105Z,24.25
2023-04-23T19:50:47.462Z,21.43
2023-04-23T19:53:13.894Z,23.67
2023-04-23T19:55:40.381Z,31.73
2023-04-23T19:58:06.811Z,28.95
2023-04-23T20:00:33.578Z,30.13
2023-04-23T20:03:00.078Z,33.03
2023-04-23T20:05:26.524Z,40.35
2023-04-23T20:07:52.945Z,40.00
2023-04-23T20:10:19.276Z,42.78
2023-04-23T20:12:46.001Z,24.08
2023-04-23T20:15:12.403Z,26.93
2023-04-23T20:17:38.788Z,20.45
2023-04-23T20:20:05.486Z,28.42
2023-04-23T20:22:33.027Z,20.95
2023-04-23T20:24:59.394Z,24.60
2023-04-23T20:27:25.765Z,17.97
2023-04-23T20:29:52.479Z,25.55
2023-04-23T20:32:18.837Z,23.77
2023-04-23T20:34:45.187Z,24.80
2023-04-23T20:37:11.853Z,18.10
2023-04-23T20:39:38.244Z,20.03
2023-04-23T20:42:05.223Z,22.55
2023-04-23T20:44:31.758Z,31.45
2023-04-23T20:46:58.133Z,32.28
2023-04-23T20:49:24.519Z,28.17
2023-04-23T20:51:51.874Z,32.70
2023-04-23T20:54:19.326Z,15.23
2023-04-23T20:56:45.672Z,28.77
2023-04-23T20:59:12.127Z,30.08
2023-04-23T21:01:38.544Z,31.48
2023-04-23T21:04:05.163Z,34.73
2023-04-23T21:06:31.818Z,26.63
2023-04-23T21:08:58.275Z,16.58
2023-04-23T21:11:24.994Z,20.25
2023-04-23T21:13:51.521Z,26.77
2023-04-23T21:16:18.051Z,19.33
2023-04-23T21:18:44.403Z,17.75
2023-04-23T21:21:10.842Z,20.50
2023-04-23T21:23:37.202Z,22.05
2023-04-23T21:26:03.681Z,20.38
2023-04-23T21:28:31.786Z,19.47
2023-04-23T21:31:00.499Z,22.05
2023-04-23T21:33:26.891Z,17.58
2023-04-23T21:35:53.807Z,24.95
2023-04-23T21:38:20.285Z,17.65
2023-04-23T21:40:46.691Z,20.03
2023-04-23T21:43:13.235Z,18.75
2023-04-23T21:45:39.618Z,22.42
2023-04-23T21:48:06.041Z,22.70
2023-04-23T21:50:33.177Z,23.38
2023-04-23T21:52:59.836Z,21.77
2023-04-23T21:55:27.166Z,23.58
2023-04-23T21:58:00.457Z,24.25
2023-04-23T22:00:32.961Z,27.38
2023-04-23T22:02:59.658Z,26.45
2023-04-23T22:05:26.499Z,25.57
2023-04-23T22:07:55.438Z,23.45
2023-04-23T22:10:22.369Z,21.92
2023-04-23T22:12:49.219Z,18.75
2023-04-23T22:15:16.471Z,23.38
2023-04-23T22:17:43.619Z,19.83
2023-04-23T22:20:10.704Z,19.05
2023-04-23T22:22:37.719Z,22.40
2023-04-23T22:25:04.872Z,25.17
2023-04-23T22:27:32.390Z,31.70
2023-04-23T22:30:00.171Z,30.00
2023-04-23T22:32:26.762Z,30.38
2023-04-23T22:34:53.268Z,26.95
2023-04-23T22:37:20.002Z,33.15
2023-04-23T22:39:46.591Z,31.58
2023-04-23T22:42:12.943Z,25.50
2023-04-23T22:44:39.306Z,22.40
2023-04-23T22:47:05.702Z,24.75
2023-04-23T22:49:32.065Z,26.13
2023-04-23T22:51:58.493Z,21.77
2023-04-23T22:54:25.046Z,22.60
2023-04-23T22:56:51.800Z,26.58
2023-04-23T22:59:18.152Z,19.25
2023-04-23T23:01:44.735Z,22.40
2023-04-23T23:04:11.156Z,13.23
2023-04-23T23:06:37.544Z,19.87
2023-04-23T23:09:03.908Z,22.27
2023-04-23T23:11:30.283Z,21.83
2023-04-23T23:13:56.691Z,26.63
2023-04-23T23:16:23.408Z,31.27
2023-04-23T23:18:49.764Z,26.77
2023-04-23T23:21:16.122Z,35.78
2023-04-23T23:23:42.637Z,38.15
2023-04-23T23:26:09.140Z,29.23
2023-04-23T23:28:35.494Z,33.92
2023-04-23T23:31:01.970Z,41.17
2023-04-23T23:33:28.426Z,29.83
2023-04-23T23:35:55.511Z,31.85
2023-04-23T23:38:22.065Z,39.95
2023-04-23T23:40:48.450Z,24.83
2023-04-23T23:43:14.799Z,22.13
2023-04-23T23:45:41.162Z,13.18
2023-04-23T23:48:07.565Z,25.30
2023-04-23T23:50:34.023Z,19.98
2023-04-23T23:53:00.433Z,16.67
2023-04-23T23:55:26.963Z,14.47
2023-04-23T23:57:53.316Z,18.38
